Αρχική σελίδα
METAR-TAF:

METAR-TAF

Αεροδρόμια :

Γιβραλτάρ, Γιβραλτάρ

γεωγραφικό πλάτος: 36-09N, γεωγραφικό μήκος: 005-21W, υψόμετρο: 5 μ

Παρών καιρός

Η αναφορά έγινε 1 ώρα και 12 λεπτά πριν, στις 23:50 UTC
Άνεμος 4 kt από Δ
Θερμοκρασία 11°C
Υγρασία 71%
Πίεση 1023 hPa
Ορατότητα 10 χλμ και άνω

METAR: LXGB 212350Z AUTO 27004KT 9999 // NCD 11/06 Q1023

Χρόνος: 02:02 (01:02 UTC)

Πρόγνωση Καιρού

Η αναφορά έγινε 11 ώρες και 19 λεπτά πριν, στις 13:43 UTC
Η πρόγνωση ισχύει από τις 21 στις 15 UTC έως τις 21 στις 23 UTC
Άνεμος 10 kt από Δ/ΝΔ
Ορατότητα 10 χλμ και άνω
Λίγα νέφη σε ύψος 3500 πόδια

TAF: LXGB 211343Z 2115/2123 25010KT 9999 FEW035

Μετεωρολογικές αναφορές και προγνώσεις για περισσότερα από 4000 αεροδρόμια (δελτία METAR και TAF).

Οι διαθέσιμοι σταθμοί απεικονίζονται στο χάρτη με κίτρινες και κόκκινες κουκκίδες.

Μετακινήστε το ποντίκι πάνω από τις κουκκίδες για να δείτε το όνομα του σταθμού.

Στη συνέχεια, κάντε κλικ για να δείτε τις μετεωρολογικές αναφορές και τις προγνώσεις καιρού.

Για να αλλάξετε το χάρτη: κάντε κλικ στα πράσινα κουμπιά με τον μαύρο σταυρό για να ζουμάρετε, στο πράσινο κουμπί με την παύλα για να αφαιρέσετε το ζουμ ή στα πράσινα βέλη για να αντιπαραβάλλετε χάρτες.


METAR-TAF: